KGXY/GXY METAR and TAF weather

Enter ICAO airport designator
Station Type Date Time Source
KGXY METAR 2020/12/06 00:56 UTC NOAA

KGXY 060056Z AUTO 29004KT 10SM CLR 01/M13 A3030 RMK AO2 SLP307 T00061133 FZRANO


Station Type Date Time Source
KGXY Decoded METAR 2020/12/06 00:56 UTC NOAA

Greeley, Greeley-Weld County Airport, CO, United States (KGXY) 40-26N 104-38W
Dec 05, 2020 - 07:56 PM EST / 2020.12.06 0056 UTC
Wind: from the WNW (290 degrees) at 5 MPH (4 KT):0
Visibility: 10 mile(s):0
Sky conditions: clear
Temperature: 33.1 F (0.6 C)
Windchill: 28 F (-2 C):1
Dew Point: 8.1 F (-13.3 C)
Relative Humidity: 34%
Pressure (altimeter): 30.3 in. Hg (1026 hPa)
ob: KGXY 060056Z AUTO 29004KT 10SM CLR 01/M13 A3030 RMK AO2 SLP307 T00061133 FZRANO
cycle: 1

Station Type Date Time Source
KGXY TAF UTC NOAA

Error!

Example: see airport list